sensor_id;sensor_type;location;lat;lon;timestamp;temperature;humidity
25450;DHT22;13371;52.080;5.624;2023-03-02T00:01:38;3.70;99.50
25450;DHT22;13371;52.080;5.624;2023-03-02T00:04:07;3.60;99.90
25450;DHT22;13371;52.080;5.624;2023-03-02T00:06:34;3.60;99.90
25450;DHT22;13371;52.080;5.624;2023-03-02T00:09:01;3.60;99.90
25450;DHT22;13371;52.080;5.624;2023-03-02T00:11:29;3.70;99.90
25450;DHT22;13371;52.080;5.624;2023-03-02T00:13:56;3.60;99.90
25450;DHT22;13371;52.080;5.624;2023-03-02T00:16:21;3.60;99.90
25450;DHT22;13371;52.080;5.624;2023-03-02T00:18:47;3.60;99.90
25450;DHT22;13371;52.080;5.624;2023-03-02T00:21:12;3.60;99.90
25450;DHT22;13371;52.080;5.624;2023-03-02T00:23:38;3.50;99.90
25450;DHT22;13371;52.080;5.624;2023-03-02T00:26:07;3.50;99.90
25450;DHT22;13371;52.080;5.624;2023-03-02T00:28:33;3.40;99.90
25450;DHT22;13371;52.080;5.624;2023-03-02T00:30:59;3.30;99.90
25450;DHT22;13371;52.080;5.624;2023-03-02T00:33:25;3.10;99.90
25450;DHT22;13371;52.080;5.624;2023-03-02T00:35:50;3.10;99.90
25450;DHT22;13371;52.080;5.624;2023-03-02T00:38:16;3.10;99.90
25450;DHT22;13371;52.080;5.624;2023-03-02T00:40:46;3.20;99.90
25450;DHT22;13371;52.080;5.624;2023-03-02T00:43:12;3.20;99.90
25450;DHT22;13371;52.080;5.624;2023-03-02T00:45:38;3.30;99.90
25450;DHT22;13371;52.080;5.624;2023-03-02T00:48:03;3.40;99.90
25450;DHT22;13371;52.080;5.624;2023-03-02T00:50:29;3.20;99.90
25450;DHT22;13371;52.080;5.624;2023-03-02T00:52:54;3.30;99.90
25450;DHT22;13371;52.080;5.624;2023-03-02T00:55:20;3.20;99.90
25450;DHT22;13371;52.080;5.624;2023-03-02T00:57:46;3.10;99.90
25450;DHT22;13371;52.080;5.624;2023-03-02T01:00:20;3.30;99.90
25450;DHT22;13371;52.080;5.624;2023-03-02T01:02:47;3.40;99.90
25450;DHT22;13371;52.080;5.624;2023-03-02T01:05:12;3.10;99.90
25450;DHT22;13371;52.080;5.624;2023-03-02T01:07:38;3.40;99.90
25450;DHT22;13371;52.080;5.624;2023-03-02T01:10:04;3.40;99.90
25450;DHT22;13371;52.080;5.624;2023-03-02T01:12:30;3.60;99.90
25450;DHT22;13371;52.080;5.624;2023-03-02T01:14:56;3.50;99.90
25450;DHT22;13371;52.080;5.624;2023-03-02T01:17:22;3.80;99.90
25450;DHT22;13371;52.080;5.624;2023-03-02T01:19:50;3.40;99.90
25450;DHT22;13371;52.080;5.624;2023-03-02T01:22:16;3.20;99.90
25450;DHT22;13371;52.080;5.624;2023-03-02T01:24:41;3.30;99.90
25450;DHT22;13371;52.080;5.624;2023-03-02T01:27:07;3.40;99.90
25450;DHT22;13371;52.080;5.624;2023-03-02T01:29:33;3.30;99.90
25450;DHT22;13371;52.080;5.624;2023-03-02T01:31:58;3.60;99.90
25450;DHT22;13371;52.080;5.624;2023-03-02T01:34:24;3.80;99.90
25450;DHT22;13371;52.080;5.624;2023-03-02T01:36:49;4.00;99.90
25450;DHT22;13371;52.080;5.624;2023-03-02T01:39:15;4.10;99.90
25450;DHT22;13371;52.080;5.624;2023-03-02T01:41:42;3.70;99.90
25450;DHT22;13371;52.080;5.624;2023-03-02T01:44:47;3.90;99.90
25450;DHT22;13371;52.080;5.624;2023-03-02T01:49:54;4.00;99.90
25450;DHT22;13371;52.080;5.624;2023-03-02T01:52:21;4.00;99.90
25450;DHT22;13371;52.080;5.624;2023-03-02T01:54:49;3.90;99.90
25450;DHT22;13371;52.080;5.624;2023-03-02T01:57:22;4.10;99.90
25450;DHT22;13371;52.080;5.624;2023-03-02T01:59:53;4.10;99.90
25450;DHT22;13371;52.080;5.624;2023-03-02T02:02:20;4.00;99.90
25450;DHT22;13371;52.080;5.624;2023-03-02T02:04:46;4.00;99.90
25450;DHT22;13371;52.080;5.624;2023-03-02T02:07:13;4.10;99.90
25450;DHT22;13371;52.080;5.624;2023-03-02T02:09:44;4.00;99.90
25450;DHT22;13371;52.080;5.624;2023-03-02T02:12:13;3.80;99.90
25450;DHT22;13371;52.080;5.624;2023-03-02T02:14:39;3.50;99.90
25450;DHT22;13371;52.080;5.624;2023-03-02T02:17:05;3.80;99.90
25450;DHT22;13371;52.080;5.624;2023-03-02T02:22:35;3.40;99.90
25450;DHT22;13371;52.080;5.624;2023-03-02T02:25:03;3.50;99.90
25450;DHT22;13371;52.080;5.624;2023-03-02T02:27:31;3.60;99.90
25450;DHT22;13371;52.080;5.624;2023-03-02T02:29:58;3.70;99.90
25450;DHT22;13371;52.080;5.624;2023-03-02T02:32:27;3.50;99.90
25450;DHT22;13371;52.080;5.624;2023-03-02T02:35:08;3.40;99.90
25450;DHT22;13371;52.080;5.624;2023-03-02T02:37:40;3.30;99.90
25450;DHT22;13371;52.080;5.624;2023-03-02T02:40:13;3.40;99.90
25450;DHT22;13371;52.080;5.624;2023-03-02T02:42:43;3.20;99.90
25450;DHT22;13371;52.080;5.624;2023-03-02T02:45:26;3.20;99.90
25450;DHT22;13371;52.080;5.624;2023-03-02T02:47:52;3.30;99.90
25450;DHT22;13371;52.080;5.624;2023-03-02T02:50:23;3.30;99.90
25450;DHT22;13371;52.080;5.624;2023-03-02T02:53:03;3.40;99.90
25450;DHT22;13371;52.080;5.624;2023-03-02T02:55:31;2.90;99.90
25450;DHT22;13371;52.080;5.624;2023-03-02T02:57:58;2.80;99.90
25450;DHT22;13371;52.080;5.624;2023-03-02T03:00:25;3.10;99.90
25450;DHT22;13371;52.080;5.624;2023-03-02T03:03:00;3.10;99.90
25450;DHT22;13371;52.080;5.624;2023-03-02T03:05:27;2.80;99.90
25450;DHT22;13371;52.080;5.624;2023-03-02T03:08:08;2.70;99.90
25450;DHT22;13371;52.080;5.624;2023-03-02T03:10:37;3.00;99.90
25450;DHT22;13371;52.080;5.624;2023-03-02T03:13:06;3.10;99.90
25450;DHT22;13371;52.080;5.624;2023-03-02T03:15:32;3.00;99.90
25450;DHT22;13371;52.080;5.624;2023-03-02T03:17:59;3.00;99.90
25450;DHT22;13371;52.080;5.624;2023-03-02T03:20:26;3.00;99.90
25450;DHT22;13371;52.080;5.624;2023-03-02T03:22:51;2.90;99.90
25450;DHT22;13371;52.080;5.624;2023-03-02T03:25:19;2.90;99.90
25450;DHT22;13371;52.080;5.624;2023-03-02T03:27:44;2.80;99.90
25450;DHT22;13371;52.080;5.624;2023-03-02T03:30:13;2.80;99.90
25450;DHT22;13371;52.080;5.624;2023-03-02T03:32:39;2.90;99.90
25450;DHT22;13371;52.080;5.624;2023-03-02T03:35:06;3.00;99.90
25450;DHT22;13371;52.080;5.624;2023-03-02T03:37:38;3.20;99.90
25450;DHT22;13371;52.080;5.624;2023-03-02T03:40:06;3.10;99.90
25450;DHT22;13371;52.080;5.624;2023-03-02T03:42:34;3.10;99.90
25450;DHT22;13371;52.080;5.624;2023-03-02T03:44:59;3.10;99.90
25450;DHT22;13371;52.080;5.624;2023-03-02T03:47:25;3.00;99.90
25450;DHT22;13371;52.080;5.624;2023-03-02T03:49:51;3.00;99.90
25450;DHT22;13371;52.080;5.624;2023-03-02T03:52:16;3.10;99.90
25450;DHT22;13371;52.080;5.624;2023-03-02T03:54:42;3.20;99.90
25450;DHT22;13371;52.080;5.624;2023-03-02T03:57:07;3.50;99.90
25450;DHT22;13371;52.080;5.624;2023-03-02T03:59:35;3.30;99.90
25450;DHT22;13371;52.080;5.624;2023-03-02T04:02:01;3.30;99.90
25450;DHT22;13371;52.080;5.624;2023-03-02T04:04:32;3.40;99.90
25450;DHT22;13371;52.080;5.624;2023-03-02T04:06:59;3.30;99.90
25450;DHT22;13371;52.080;5.624;2023-03-02T04:09:24;3.20;99.90
25450;DHT22;13371;52.080;5.624;2023-03-02T04:11:52;3.00;99.90
25450;DHT22;13371;52.080;5.624;2023-03-02T04:14:19;3.10;99.90
25450;DHT22;13371;52.080;5.624;2023-03-02T04:16:45;2.90;99.90
25450;DHT22;13371;52.080;5.624;2023-03-02T04:19:11;2.70;99.90
25450;DHT22;13371;52.080;5.624;2023-03-02T04:21:43;2.60;99.90
25450;DHT22;13371;52.080;5.624;2023-03-02T04:24:11;2.50;99.90
25450;DHT22;13371;52.080;5.624;2023-03-02T04:26:39;2.60;99.90
25450;DHT22;13371;52.080;5.624;2023-03-02T04:29:06;2.80;99.90
25450;DHT22;13371;52.080;5.624;2023-03-02T04:31:32;2.70;99.90
25450;DHT22;13371;52.080;5.624;2023-03-02T04:33:58;2.80;99.90
25450;DHT22;13371;52.080;5.624;2023-03-02T04:36:25;3.00;99.90
25450;DHT22;13371;52.080;5.624;2023-03-02T04:38:50;2.90;99.90
25450;DHT22;13371;52.080;5.624;2023-03-02T04:41:17;2.80;99.90
25450;DHT22;13371;52.080;5.624;2023-03-02T04:43:44;2.90;99.90
25450;DHT22;13371;52.080;5.624;2023-03-02T04:46:19;2.80;99.90
25450;DHT22;13371;52.080;5.624;2023-03-02T04:48:46;2.90;99.90
25450;DHT22;13371;52.080;5.624;2023-03-02T04:51:24;2.80;99.90
25450;DHT22;13371;52.080;5.624;2023-03-02T04:53:51;3.00;99.90
25450;DHT22;13371;52.080;5.624;2023-03-02T04:56:16;3.00;99.90
25450;DHT22;13371;52.080;5.624;2023-03-02T04:58:42;2.90;99.90
25450;DHT22;13371;52.080;5.624;2023-03-02T05:01:09;2.80;99.90
25450;DHT22;13371;52.080;5.624;2023-03-02T05:03:35;3.00;99.90
25450;DHT22;13371;52.080;5.624;2023-03-02T05:06:00;2.80;99.90
25450;DHT22;13371;52.080;5.624;2023-03-02T05:08:28;2.80;99.90
25450;DHT22;13371;52.080;5.624;2023-03-02T05:10:54;2.80;99.90
25450;DHT22;13371;52.080;5.624;2023-03-02T05:13:20;2.80;99.90
25450;DHT22;13371;52.080;5.624;2023-03-02T05:15:45;2.80;99.90
25450;DHT22;13371;52.080;5.624;2023-03-02T05:18:11;2.90;99.90
25450;DHT22;13371;52.080;5.624;2023-03-02T05:20:37;2.80;99.90
25450;DHT22;13371;52.080;5.624;2023-03-02T05:23:06;2.80;99.90
25450;DHT22;13371;52.080;5.624;2023-03-02T05:25:36;2.80;99.90
25450;DHT22;13371;52.080;5.624;2023-03-02T05:28:03;2.50;99.90
25450;DHT22;13371;52.080;5.624;2023-03-02T05:30:29;2.60;99.90
25450;DHT22;13371;52.080;5.624;2023-03-02T05:33:00;2.60;99.90
25450;DHT22;13371;52.080;5.624;2023-03-02T05:35:25;2.70;99.90
25450;DHT22;13371;52.080;5.624;2023-03-02T05:37:51;2.60;99.90
25450;DHT22;13371;52.080;5.624;2023-03-02T05:40:23;2.50;99.90
25450;DHT22;13371;52.080;5.624;2023-03-02T05:42:49;2.30;99.90
25450;DHT22;13371;52.080;5.624;2023-03-02T05:45:27;2.30;99.90
25450;DHT22;13371;52.080;5.624;2023-03-02T05:47:53;2.50;99.90
25450;DHT22;13371;52.080;5.624;2023-03-02T05:50:19;2.30;99.90
25450;DHT22;13371;52.080;5.624;2023-03-02T05:52:45;1.90;99.90
25450;DHT22;13371;52.080;5.624;2023-03-02T05:55:12;2.10;99.90
25450;DHT22;13371;52.080;5.624;2023-03-02T05:57:38;2.10;99.90
25450;DHT22;13371;52.080;5.624;2023-03-02T06:00:05;2.10;99.90
25450;DHT22;13371;52.080;5.624;2023-03-02T06:02:31;2.10;99.90
25450;DHT22;13371;52.080;5.624;2023-03-02T06:04:56;2.00;99.90
25450;DHT22;13371;52.080;5.624;2023-03-02T06:07:22;1.90;99.90
25450;DHT22;13371;52.080;5.624;2023-03-02T06:09:48;1.80;99.90
25450;DHT22;13371;52.080;5.624;2023-03-02T06:12:15;2.00;99.90
25450;DHT22;13371;52.080;5.624;2023-03-02T06:14:42;2.30;99.90
25450;DHT22;13371;52.080;5.624;2023-03-02T06:17:08;2.50;99.90
25450;DHT22;13371;52.080;5.624;2023-03-02T06:19:34;2.30;99.90
25450;DHT22;13371;52.080;5.624;2023-03-02T06:22:00;2.30;99.90
25450;DHT22;13371;52.080;5.624;2023-03-02T06:24:25;2.50;99.90
25450;DHT22;13371;52.080;5.624;2023-03-02T06:26:52;2.40;99.90
25450;DHT22;13371;52.080;5.624;2023-03-02T06:29:18;2.50;99.90
25450;DHT22;13371;52.080;5.624;2023-03-02T06:31:44;2.70;99.90
25450;DHT22;13371;52.080;5.624;2023-03-02T06:34:09;2.60;99.90
25450;DHT22;13371;52.080;5.624;2023-03-02T06:36:35;2.50;99.90
25450;DHT22;13371;52.080;5.624;2023-03-02T06:39:06;2.60;99.90
25450;DHT22;13371;52.080;5.624;2023-03-02T06:41:32;2.60;99.90
25450;DHT22;13371;52.080;5.624;2023-03-02T06:44:01;2.60;99.90
25450;DHT22;13371;52.080;5.624;2023-03-02T06:46:27;2.50;99.90
25450;DHT22;13371;52.080;5.624;2023-03-02T06:48:52;2.40;99.90
25450;DHT22;13371;52.080;5.624;2023-03-02T06:51:18;2.40;99.90
25450;DHT22;13371;52.080;5.624;2023-03-02T06:53:43;2.40;99.90
25450;DHT22;13371;52.080;5.624;2023-03-02T06:56:09;2.30;99.90
25450;DHT22;13371;52.080;5.624;2023-03-02T06:58:36;2.30;99.90
25450;DHT22;13371;52.080;5.624;2023-03-02T07:01:02;2.30;99.90
25450;DHT22;13371;52.080;5.624;2023-03-02T07:03:28;2.50;99.90
25450;DHT22;13371;52.080;5.624;2023-03-02T07:05:54;2.40;99.90
25450;DHT22;13371;52.080;5.624;2023-03-02T07:08:20;2.40;99.90
25450;DHT22;13371;52.080;5.624;2023-03-02T07:10:45;2.50;99.90
25450;DHT22;13371;52.080;5.624;2023-03-02T07:13:11;2.80;99.90
25450;DHT22;13371;52.080;5.624;2023-03-02T07:15:38;3.00;99.90
25450;DHT22;13371;52.080;5.624;2023-03-02T07:18:04;2.80;99.90
25450;DHT22;13371;52.080;5.624;2023-03-02T07:20:29;2.50;99.90
25450;DHT22;13371;52.080;5.624;2023-03-02T07:22:56;2.40;99.90
25450;DHT22;13371;52.080;5.624;2023-03-02T07:25:22;2.60;99.90
25450;DHT22;13371;52.080;5.624;2023-03-02T07:27:47;2.60;99.90
25450;DHT22;13371;52.080;5.624;2023-03-02T07:30:13;2.30;99.90
25450;DHT22;13371;52.080;5.624;2023-03-02T07:32:40;2.30;99.90
25450;DHT22;13371;52.080;5.624;2023-03-02T07:35:06;2.40;99.90
25450;DHT22;13371;52.080;5.624;2023-03-02T07:37:32;2.30;99.90
25450;DHT22;13371;52.080;5.624;2023-03-02T07:39:58;2.40;99.90
25450;DHT22;13371;52.080;5.624;2023-03-02T07:42:23;2.80;99.90
25450;DHT22;13371;52.080;5.624;2023-03-02T07:44:51;3.10;99.90
25450;DHT22;13371;52.080;5.624;2023-03-02T07:47:18;3.50;99.90
25450;DHT22;13371;52.080;5.624;2023-03-02T07:49:44;3.80;99.90
25450;DHT22;13371;52.080;5.624;2023-03-02T07:52:09;3.40;99.90
25450;DHT22;13371;52.080;5.624;2023-03-02T07:54:35;4.20;99.90
25450;DHT22;13371;52.080;5.624;2023-03-02T07:57:01;4.80;99.90
25450;DHT22;13371;52.080;5.624;2023-03-02T07:59:26;5.90;99.50
25450;DHT22;13371;52.080;5.624;2023-03-02T08:01:53;6.40;96.90
25450;DHT22;13371;52.080;5.624;2023-03-02T08:04:19;6.20;96.30
25450;DHT22;13371;52.080;5.624;2023-03-02T08:06:44;6.70;95.50
25450;DHT22;13371;52.080;5.624;2023-03-02T08:09:10;6.60;95.30
25450;DHT22;13371;52.080;5.624;2023-03-02T08:11:35;6.30;95.70
25450;DHT22;13371;52.080;5.624;2023-03-02T08:14:02;6.20;96.40
25450;DHT22;13371;52.080;5.624;2023-03-02T08:16:28;6.80;95.70
25450;DHT22;13371;52.080;5.624;2023-03-02T08:18:53;6.90;95.10
25450;DHT22;13371;52.080;5.624;2023-03-02T08:21:21;6.90;95.40
25450;DHT22;13371;52.080;5.624;2023-03-02T08:23:47;7.60;94.30
25450;DHT22;13371;52.080;5.624;2023-03-02T08:26:14;8.40;92.80
25450;DHT22;13371;52.080;5.624;2023-03-02T08:28:40;7.20;92.90
25450;DHT22;13371;52.080;5.624;2023-03-02T08:31:07;7.00;94.60
25450;DHT22;13371;52.080;5.624;2023-03-02T08:33:33;7.50;94.10
25450;DHT22;13371;52.080;5.624;2023-03-02T08:36:02;8.00;94.10
25450;DHT22;13371;52.080;5.624;2023-03-02T08:38:28;7.80;92.90
25450;DHT22;13371;52.080;5.624;2023-03-02T08:40:54;7.40;93.70
25450;DHT22;13371;52.080;5.624;2023-03-02T08:43:21;7.10;95.10
25450;DHT22;13371;52.080;5.624;2023-03-02T08:45:52;7.40;94.00
25450;DHT22;13371;52.080;5.624;2023-03-02T08:48:22;6.80;95.10
25450;DHT22;13371;52.080;5.624;2023-03-02T08:51:03;6.80;95.20
25450;DHT22;13371;52.080;5.624;2023-03-02T08:53:32;6.40;96.00
25450;DHT22;13371;52.080;5.624;2023-03-02T08:55:57;6.20;96.40
25450;DHT22;13371;52.080;5.624;2023-03-02T08:58:23;5.90;97.10
25450;DHT22;13371;52.080;5.624;2023-03-02T09:00:49;6.30;98.30
25450;DHT22;13371;52.080;5.624;2023-03-02T09:03:15;6.50;96.70
25450;DHT22;13371;52.080;5.624;2023-03-02T09:05:40;6.50;96.60
25450;DHT22;13371;52.080;5.624;2023-03-02T09:08:06;6.40;96.30
25450;DHT22;13371;52.080;5.624;2023-03-02T09:10:32;6.40;96.70
25450;DHT22;13371;52.080;5.624;2023-03-02T09:12:57;6.50;96.70
25450;DHT22;13371;52.080;5.624;2023-03-02T09:15:23;6.50;97.10
25450;DHT22;13371;52.080;5.624;2023-03-02T09:17:49;5.90;97.10
25450;DHT22;13371;52.080;5.624;2023-03-02T09:20:14;6.00;97.80
25450;DHT22;13371;52.080;5.624;2023-03-02T09:22:40;6.10;97.90
25450;DHT22;13371;52.080;5.624;2023-03-02T09:25:12;6.00;97.70
25450;DHT22;13371;52.080;5.624;2023-03-02T09:27:37;6.10;98.40
25450;DHT22;13371;52.080;5.624;2023-03-02T09:30:03;5.70;98.40
25450;DHT22;13371;52.080;5.624;2023-03-02T09:32:29;6.40;98.40
25450;DHT22;13371;52.080;5.624;2023-03-02T09:34:55;6.50;97.00
25450;DHT22;13371;52.080;5.624;2023-03-02T09:37:20;6.60;97.20
25450;DHT22;13371;52.080;5.624;2023-03-02T09:39:46;6.60;96.60
25450;DHT22;13371;52.080;5.624;2023-03-02T09:44:59;7.20;95.20
25450;DHT22;13371;52.080;5.624;2023-03-02T09:52:44;7.10;96.30
25450;DHT22;13371;52.080;5.624;2023-03-02T09:55:17;7.70;95.20
25450;DHT22;13371;52.080;5.624;2023-03-02T09:57:43;7.60;94.80
25450;DHT22;13371;52.080;5.624;2023-03-02T10:00:13;8.20;94.20
25450;DHT22;13371;52.080;5.624;2023-03-02T10:02:49;8.10;93.90
25450;DHT22;13371;52.080;5.624;2023-03-02T10:05:17;7.90;93.70
25450;DHT22;13371;52.080;5.624;2023-03-02T10:07:45;7.90;93.40
25450;DHT22;13371;52.080;5.624;2023-03-02T10:10:25;7.80;93.80
25450;DHT22;13371;52.080;5.624;2023-03-02T10:15:30;8.10;93.00
25450;DHT22;13371;52.080;5.624;2023-03-02T10:18:22;8.20;93.10
25450;DHT22;13371;52.080;5.624;2023-03-02T10:21:42;8.00;92.60
25450;DHT22;13371;52.080;5.624;2023-03-02T10:24:25;7.70;93.10
25450;DHT22;13371;52.080;5.624;2023-03-02T10:27:01;8.10;93.50
25450;DHT22;13371;52.080;5.624;2023-03-02T10:32:23;8.90;91.60
25450;DHT22;13371;52.080;5.624;2023-03-02T10:34:52;7.90;92.90
25450;DHT22;13371;52.080;5.624;2023-03-02T10:37:20;8.10;93.20
25450;DHT22;13371;52.080;5.624;2023-03-02T10:39:48;8.70;92.40
25450;DHT22;13371;52.080;5.624;2023-03-02T10:42:28;8.50;91.90
25450;DHT22;13371;52.080;5.624;2023-03-02T10:44:58;8.50;93.00
25450;DHT22;13371;52.080;5.624;2023-03-02T10:47:28;8.70;92.40
25450;DHT22;13371;52.080;5.624;2023-03-02T10:49:55;9.20;91.50
25450;DHT22;13371;52.080;5.624;2023-03-02T10:52:23;9.90;90.70
25450;DHT22;13371;52.080;5.624;2023-03-02T10:55:00;9.80;90.50
25450;DHT22;13371;52.080;5.624;2023-03-02T10:57:42;9.90;91.20
25450;DHT22;13371;52.080;5.624;2023-03-02T11:00:20;9.90;89.60
25450;DHT22;13371;52.080;5.624;2023-03-02T11:02:54;9.70;90.20
25450;DHT22;13371;52.080;5.624;2023-03-02T11:05:28;9.90;90.00
25450;DHT22;13371;52.080;5.624;2023-03-02T11:07:55;9.70;90.00
25450;DHT22;13371;52.080;5.624;2023-03-02T11:10:23;9.70;90.00
25450;DHT22;13371;52.080;5.624;2023-03-02T11:12:51;9.60;90.20
25450;DHT22;13371;52.080;5.624;2023-03-02T11:15:24;9.80;90.30
25450;DHT22;13371;52.080;5.624;2023-03-02T11:21:01;10.20;90.40
25450;DHT22;13371;52.080;5.624;2023-03-02T11:32:03;11.00;88.10
25450;DHT22;13371;52.080;5.624;2023-03-02T11:37:47;9.80;90.20
25450;DHT22;13371;52.080;5.624;2023-03-02T11:40:38;10.00;90.20
25450;DHT22;13371;52.080;5.624;2023-03-02T11:43:04;10.00;88.00
25450;DHT22;13371;52.080;5.624;2023-03-02T11:45:34;9.50;88.90
25450;DHT22;13371;52.080;5.624;2023-03-02T11:51:17;10.20;88.10
25450;DHT22;13371;52.080;5.624;2023-03-02T11:53:50;10.10;87.80
25450;DHT22;13371;52.080;5.624;2023-03-02T11:56:17;10.40;87.90
25450;DHT22;13371;52.080;5.624;2023-03-02T11:58:44;10.60;86.70
25450;DHT22;13371;52.080;5.624;2023-03-02T12:01:19;11.10;84.80
25450;DHT22;13371;52.080;5.624;2023-03-02T12:03:46;11.30;84.10
25450;DHT22;13371;52.080;5.624;2023-03-02T12:08:47;11.10;84.50
25450;DHT22;13371;52.080;5.624;2023-03-02T12:16:38;10.60;84.70
25450;DHT22;13371;52.080;5.624;2023-03-02T12:19:27;11.20;85.40
25450;DHT22;13371;52.080;5.624;2023-03-02T12:22:01;10.30;84.60
25450;DHT22;13371;52.080;5.624;2023-03-02T12:24:32;10.60;87.60
25450;DHT22;13371;52.080;5.624;2023-03-02T12:27:04;10.40;85.20
25450;DHT22;13371;52.080;5.624;2023-03-02T12:29:43;10.30;85.80
25450;DHT22;13371;52.080;5.624;2023-03-02T12:32:27;10.20;86.50
25450;DHT22;13371;52.080;5.624;2023-03-02T12:37:46;11.00;85.00
25450;DHT22;13371;52.080;5.624;2023-03-02T12:40:32;11.10;82.70
25450;DHT22;13371;52.080;5.624;2023-03-02T12:48:26;11.00;83.40
25450;DHT22;13371;52.080;5.624;2023-03-02T12:50:58;11.40;84.20
25450;DHT22;13371;52.080;5.624;2023-03-02T12:53:26;11.60;83.20
25450;DHT22;13371;52.080;5.624;2023-03-02T12:55:51;11.70;81.30
25450;DHT22;13371;52.080;5.624;2023-03-02T12:58:23;11.90;79.80
25450;DHT22;13371;52.080;5.624;2023-03-02T13:00:57;12.10;79.90
25450;DHT22;13371;52.080;5.624;2023-03-02T13:03:23;12.40;79.20
25450;DHT22;13371;52.080;5.624;2023-03-02T13:05:51;12.40;78.30
25450;DHT22;13371;52.080;5.624;2023-03-02T13:08:17;12.40;76.60
25450;DHT22;13371;52.080;5.624;2023-03-02T13:10:52;12.10;76.20
25450;DHT22;13371;52.080;5.624;2023-03-02T13:13:25;11.90;77.60
25450;DHT22;13371;52.080;5.624;2023-03-02T13:15:57;11.80;80.40
25450;DHT22;13371;52.080;5.624;2023-03-02T13:18:27;11.70;79.50
25450;DHT22;13371;52.080;5.624;2023-03-02T13:20:56;11.80;78.10
25450;DHT22;13371;52.080;5.624;2023-03-02T13:23:23;11.50;80.20
25450;DHT22;13371;52.080;5.624;2023-03-02T13:25:51;11.80;79.70
25450;DHT22;13371;52.080;5.624;2023-03-02T13:28:34;11.80;78.80
25450;DHT22;13371;52.080;5.624;2023-03-02T13:31:19;11.90;80.70
25450;DHT22;13371;52.080;5.624;2023-03-02T13:33:47;12.00;79.70
25450;DHT22;13371;52.080;5.624;2023-03-02T13:36:25;12.30;79.40
25450;DHT22;13371;52.080;5.624;2023-03-02T13:38:54;12.30;79.20
25450;DHT22;13371;52.080;5.624;2023-03-02T13:41:21;12.60;79.00
25450;DHT22;13371;52.080;5.624;2023-03-02T13:43:47;12.40;76.80
25450;DHT22;13371;52.080;5.624;2023-03-02T13:48:57;11.80;77.50
25450;DHT22;13371;52.080;5.624;2023-03-02T13:51:24;11.70;78.70
25450;DHT22;13371;52.080;5.624;2023-03-02T13:54:00;11.40;80.80
25450;DHT22;13371;52.080;5.624;2023-03-02T13:56:32;11.70;79.20
25450;DHT22;13371;52.080;5.624;2023-03-02T13:58:59;11.50;80.90
25450;DHT22;13371;52.080;5.624;2023-03-02T14:01:26;11.90;79.80
25450;DHT22;13371;52.080;5.624;2023-03-02T14:03:52;12.00;78.60
25450;DHT22;13371;52.080;5.624;2023-03-02T14:06:18;12.30;78.50
25450;DHT22;13371;52.080;5.624;2023-03-02T14:08:45;12.80;79.00
25450;DHT22;13371;52.080;5.624;2023-03-02T14:11:12;12.90;76.20
25450;DHT22;13371;52.080;5.624;2023-03-02T14:13:53;12.40;78.80
25450;DHT22;13371;52.080;5.624;2023-03-02T14:16:19;12.50;79.20
25450;DHT22;13371;52.080;5.624;2023-03-02T14:18:46;11.60;81.10
25450;DHT22;13371;52.080;5.624;2023-03-02T14:21:23;11.50;81.90
25450;DHT22;13371;52.080;5.624;2023-03-02T14:23:49;11.50;81.30
25450;DHT22;13371;52.080;5.624;2023-03-02T14:26:36;11.50;83.00
25450;DHT22;13371;52.080;5.624;2023-03-02T14:29:20;11.50;83.40
25450;DHT22;13371;52.080;5.624;2023-03-02T14:31:47;11.80;81.50
25450;DHT22;13371;52.080;5.624;2023-03-02T14:34:14;12.20;80.90
25450;DHT22;13371;52.080;5.624;2023-03-02T14:36:40;12.20;80.30
25450;DHT22;13371;52.080;5.624;2023-03-02T14:41:43;12.30;78.70
25450;DHT22;13371;52.080;5.624;2023-03-02T14:44:10;12.10;78.60
25450;DHT22;13371;52.080;5.624;2023-03-02T14:46:35;12.20;79.30
25450;DHT22;13371;52.080;5.624;2023-03-02T14:49:01;12.40;78.40
25450;DHT22;13371;52.080;5.624;2023-03-02T14:51:29;12.20;78.90
25450;DHT22;13371;52.080;5.624;2023-03-02T14:53:57;12.20;79.60
25450;DHT22;13371;52.080;5.624;2023-03-02T14:56:24;11.80;80.10
25450;DHT22;13371;52.080;5.624;2023-03-02T14:58:51;11.60;81.60
25450;DHT22;13371;52.080;5.624;2023-03-02T15:01:17;11.40;81.50
25450;DHT22;13371;52.080;5.624;2023-03-02T15:03:43;11.40;80.90
25450;DHT22;13371;52.080;5.624;2023-03-02T15:06:30;11.40;81.10
25450;DHT22;13371;52.080;5.624;2023-03-02T15:08:57;11.60;80.60
25450;DHT22;13371;52.080;5.624;2023-03-02T15:11:23;11.70;81.30
25450;DHT22;13371;52.080;5.624;2023-03-02T15:13:49;11.70;81.30
25450;DHT22;13371;52.080;5.624;2023-03-02T15:16:14;11.80;80.00
25450;DHT22;13371;52.080;5.624;2023-03-02T15:18:40;11.90;79.80
25450;DHT22;13371;52.080;5.624;2023-03-02T15:21:06;12.10;79.00
25450;DHT22;13371;52.080;5.624;2023-03-02T15:23:34;11.80;80.60
25450;DHT22;13371;52.080;5.624;2023-03-02T15:26:01;12.10;80.60
25450;DHT22;13371;52.080;5.624;2023-03-02T15:28:27;12.10;78.50
25450;DHT22;13371;52.080;5.624;2023-03-02T15:30:52;11.50;80.90
25450;DHT22;13371;52.080;5.624;2023-03-02T15:33:19;11.60;79.50
25450;DHT22;13371;52.080;5.624;2023-03-02T15:35:50;11.40;79.80
25450;DHT22;13371;52.080;5.624;2023-03-02T15:38:16;11.20;80.10
25450;DHT22;13371;52.080;5.624;2023-03-02T15:40:41;11.50;80.10
25450;DHT22;13371;52.080;5.624;2023-03-02T15:43:07;11.60;80.60
25450;DHT22;13371;52.080;5.624;2023-03-02T15:45:32;11.70;79.70
25450;DHT22;13371;52.080;5.624;2023-03-02T15:47:58;11.60;80.70
25450;DHT22;13371;52.080;5.624;2023-03-02T15:50:23;11.60;81.30
25450;DHT22;13371;52.080;5.624;2023-03-02T15:52:49;11.50;81.20
25450;DHT22;13371;52.080;5.624;2023-03-02T15:55:15;11.50;80.80
25450;DHT22;13371;52.080;5.624;2023-03-02T15:57:41;11.30;80.70
25450;DHT22;13371;52.080;5.624;2023-03-02T16:00:07;11.20;80.80
25450;DHT22;13371;52.080;5.624;2023-03-02T16:02:33;11.20;80.00
25450;DHT22;13371;52.080;5.624;2023-03-02T16:04:59;11.30;79.80
25450;DHT22;13371;52.080;5.624;2023-03-02T16:07:25;11.40;79.40
25450;DHT22;13371;52.080;5.624;2023-03-02T16:09:51;11.20;80.00
25450;DHT22;13371;52.080;5.624;2023-03-02T16:12:17;10.70;82.20
25450;DHT22;13371;52.080;5.624;2023-03-02T16:14:45;10.60;83.70
25450;DHT22;13371;52.080;5.624;2023-03-02T16:17:11;10.60;84.90
25450;DHT22;13371;52.080;5.624;2023-03-02T16:19:36;10.20;86.60
25450;DHT22;13371;52.080;5.624;2023-03-02T16:22:02;10.20;86.90
25450;DHT22;13371;52.080;5.624;2023-03-02T16:24:28;10.00;87.30
25450;DHT22;13371;52.080;5.624;2023-03-02T16:26:53;10.00;87.60
25450;DHT22;13371;52.080;5.624;2023-03-02T16:29:19;10.00;87.30
25450;DHT22;13371;52.080;5.624;2023-03-02T16:31:45;9.70;88.40
25450;DHT22;13371;52.080;5.624;2023-03-02T16:34:11;9.80;88.60
25450;DHT22;13371;52.080;5.624;2023-03-02T16:36:38;9.70;88.70
25450;DHT22;13371;52.080;5.624;2023-03-02T16:39:06;9.50;89.50
25450;DHT22;13371;52.080;5.624;2023-03-02T16:41:32;9.50;89.10
25450;DHT22;13371;52.080;5.624;2023-03-02T16:43:58;9.30;89.90
25450;DHT22;13371;52.080;5.624;2023-03-02T16:46:26;9.30;90.30
25450;DHT22;13371;52.080;5.624;2023-03-02T16:48:52;9.40;90.20